Time;durP1;ratioP1;P1;durP2;ratioP2;P2;SDS_P1;SDS_P2;PMS_P1;PMS_P2;Temp;Humidity;BMP_temperature;BMP_pressure;BME280_temperature;BME280_humidity;BME280_pressure;Samples;Min_cycle;Max_cycle;Signal;HPM_P1;HPM_P2
2021/11/01 00:02:13;;;;;;;2.30;1.83;;;;;;;8.45;94.26;95068.31;5057070;28;20700;-69
2021/11/01 00:04:44;;;;;;;3.30;2.53;;;;;;;8.70;93.83;95064.25;5058232;28;20211;-69
2021/11/01 00:07:10;;;;;;;1.93;1.73;;;;;;;8.55;91.93;95061.75;5056528;28;20252;-69
2021/11/01 00:09:37;;;;;;;4.80;2.43;;;;;;;8.39;91.49;95068.28;5057131;28;20196;-69
2021/11/01 00:12:04;;;;;;;3.07;2.10;;;;;;;8.43;93.68;95064.28;5057595;28;20216;-69
2021/11/01 00:14:31;;;;;;;3.57;2.23;;;;;;;8.26;97.01;95061.16;5057758;28;20208;-69
2021/11/01 00:16:58;;;;;;;3.33;2.13;;;;;;;8.33;98.15;95059.38;5055849;28;20220;-69
2021/11/01 00:19:26;;;;;;;4.60;2.53;;;;;;;8.34;98.95;95052.28;5056582;28;20231;-69
2021/11/01 00:21:54;;;;;;;2.97;1.43;;;;;;;8.64;100.00;95052.72;5057116;28;20203;-69
2021/11/01 00:24:21;;;;;;;4.50;2.43;;;;;;;8.48;100.00;95056.63;5056654;28;20205;-69
2021/11/01 00:26:48;;;;;;;11.67;2.43;;;;;;;8.55;100.00;95051.25;5053175;28;20220;-69
2021/11/01 00:29:14;;;;;;;3.67;1.57;;;;;;;8.52;100.00;95049.00;5057011;28;20291;-69
2021/11/01 00:31:41;;;;;;;4.87;2.80;;;;;;;8.57;100.00;95049.22;5057144;28;20205;-69
2021/11/01 00:34:07;;;;;;;3.67;2.07;;;;;;;8.55;100.00;95048.63;5056630;28;20318;-69
2021/11/01 00:36:34;;;;;;;4.00;1.57;;;;;;;8.76;99.37;95045.91;5059187;28;20238;-69
2021/11/01 00:39:02;;;;;;;3.83;2.53;;;;;;;9.09;98.61;95046.84;5060352;28;20322;-69
2021/11/01 00:41:29;;;;;;;1.77;1.33;;;;;;;8.87;98.20;95042.72;5060418;28;20210;-69
2021/11/01 00:43:56;;;;;;;6.90;2.27;;;;;;;8.76;99.26;95045.09;5060972;28;20201;-69
2021/11/01 00:46:22;;;;;;;3.17;1.90;;;;;;;8.81;99.89;95045.34;5060074;28;20205;-69
2021/11/01 00:48:50;;;;;;;0.80;0.80;;;;;;;9.02;98.15;95048.63;5060209;28;20195;-69
2021/11/01 00:51:16;;;;;;;1.40;1.30;;;;;;;8.82;96.87;95042.50;5060462;28;20207;-69
2021/11/01 00:53:47;;;;;;;4.47;1.77;;;;;;;8.98;97.12;95039.53;5059971;28;20687;-69
2021/11/01 00:56:16;;;;;;;2.40;1.53;;;;;;;9.25;97.32;95049.13;5059628;28;20204;-69
2021/11/01 00:58:43;;;;;;;1.80;1.43;;;;;;;8.93;97.45;95047.19;5060123;28;20231;-69
2021/11/01 01:01:11;;;;;;;2.83;1.90;;;;;;;9.12;95.94;95049.09;5060157;28;20269;-69
2021/11/01 01:03:37;;;;;;;2.07;1.50;;;;;;;8.88;96.06;95044.31;5060283;28;20209;-69
2021/11/01 01:06:04;;;;;;;4.70;2.53;;;;;;;8.95;95.51;95041.72;5059309;28;20200;-69
2021/11/01 01:08:31;;;;;;;1.53;1.10;;;;;;;8.70;95.96;95041.41;5059927;28;20221;-69
2021/11/01 01:10:57;;;;;;;10.37;2.77;;;;;;;8.88;95.89;95033.03;5060245;28;20196;-69
2021/11/01 01:13:28;;;;;;;2.30;1.83;;;;;;;9.25;95.83;95035.97;5059776;28;20211;-69
2021/11/01 01:16:00;;;;;;;2.00;1.57;;;;;;;8.82;97.53;95039.03;5059874;28;20200;-69
2021/11/01 01:18:29;;;;;;;4.33;1.97;;;;;;;8.93;97.94;95039.31;5060422;28;20343;-69
2021/11/01 01:20:58;;;;;;;2.60;1.60;;;;;;;9.10;97.18;95024.84;5059338;28;20204;-69
2021/11/01 01:23:25;;;;;;;2.10;1.50;;;;;;;9.06;96.85;95023.59;5059697;28;20207;-69
2021/11/01 01:25:57;;;;;;;5.70;2.57;;;;;;;9.26;96.84;95021.84;5056020;28;20205;-69
2021/11/01 01:28:25;;;;;;;2.27;1.43;;;;;;;9.29;97.12;95021.44;5059590;28;20228;-69
2021/11/01 01:30:55;;;;;;;2.57;1.90;;;;;;;9.20;97.10;95018.19;5060399;28;20196;-69
2021/11/01 01:33:21;;;;;;;2.27;1.40;;;;;;;9.31;96.70;95020.22;5059206;28;20204;-69
2021/11/01 01:35:48;;;;;;;1.47;1.37;;;;;;;9.40;96.55;95015.59;5058707;28;20571;-69
2021/11/01 01:38:14;;;;;;;2.43;1.47;;;;;;;9.37;96.05;95008.94;5059982;28;20236;-69
2021/11/01 01:40:41;;;;;;;2.37;1.67;;;;;;;9.37;95.41;95008.13;5059514;28;20197;-69
2021/11/01 01:43:08;;;;;;;4.13;2.10;;;;;;;9.39;96.36;95003.47;5059435;28;20705;-69
2021/11/01 01:45:36;;;;;;;4.27;1.80;;;;;;;9.62;96.37;95002.06;5058780;28;20211;-69
2021/11/01 01:48:04;;;;;;;5.87;2.00;;;;;;;9.54;96.29;94999.66;5058894;28;20282;-69
2021/11/01 01:50:31;;;;;;;2.77;1.70;;;;;;;9.45;96.69;94998.22;5059244;28;20204;-69
2021/11/01 01:52:57;;;;;;;1.97;1.80;;;;;;;9.47;95.71;94992.75;5059605;28;20205;-69
2021/11/01 01:55:24;;;;;;;3.77;1.93;;;;;;;9.32;96.47;94990.31;5059190;28;20219;-69
2021/11/01 01:57:52;;;;;;;3.23;1.97;;;;;;;9.35;96.47;94991.75;5058995;28;20224;-69
2021/11/01 02:00:33;;;;;;;3.50;1.97;;;;;;;9.54;95.54;94986.50;5059402;28;20228;-69
2021/11/01 02:03:01;;;;;;;2.47;1.70;;;;;;;9.65;95.36;94980.66;5059861;28;20318;-69
2021/11/01 02:05:37;;;;;;;4.30;2.17;;;;;;;9.68;95.95;94974.97;5058965;28;20675;-69
2021/11/01 02:08:07;;;;;;;11.90;2.03;;;;;;;9.71;96.13;94970.13;5059089;28;21156;-69
2021/11/01 02:10:42;;;;;;;2.97;2.30;;;;;;;9.74;96.07;94967.09;5059246;28;20572;-69
2021/11/01 02:13:15;;;;;;;2.87;1.83;;;;;;;9.78;96.07;94954.34;5059078;28;20200;-69
2021/11/01 02:15:45;;;;;;;1.90;1.57;;;;;;;9.76;96.16;94959.00;5058057;28;20211;-69
2021/11/01 02:18:14;;;;;;;2.53;2.07;;;;;;;9.67;96.42;94954.16;5059258;28;20229;-69
2021/11/01 02:20:53;;;;;;;3.23;2.10;;;;;;;9.81;95.62;94960.03;5058847;28;20215;-69
2021/11/01 02:23:26;;;;;;;5.00;1.60;;;;;;;9.72;96.18;94955.97;5058595;28;20204;-69
2021/11/01 02:25:56;;;;;;;2.73;1.60;;;;;;;9.62;96.69;94956.56;5055778;28;20205;-69
2021/11/01 02:28:25;;;;;;;3.07;1.73;;;;;;;9.61;96.32;94953.16;5059426;28;20227;-69
2021/11/01 02:30:53;;;;;;;3.90;1.80;;;;;;;9.59;96.66;94960.41;5059196;28;20196;-69
2021/11/01 02:33:21;;;;;;;6.70;2.40;;;;;;;9.64;97.05;94957.19;5059011;28;20550;-69
2021/11/01 02:35:48;;;;;;;2.83;1.83;;;;;;;9.51;98.87;94958.00;5059290;28;20334;-69
2021/11/01 02:38:18;;;;;;;2.40;1.50;;;;;;;9.66;98.74;94955.97;5059808;28;20240;-69
2021/11/01 02:40:45;;;;;;;5.50;2.53;;;;;;;9.74;98.75;94953.16;5059059;28;20200;-69
2021/11/01 02:43:14;;;;;;;4.70;2.57;;;;;;;10.00;100.00;94956.56;5059354;28;20261;-69
2021/11/01 02:45:41;;;;;;;2.23;1.73;;;;;;;9.80;100.00;94953.16;5058572;28;20571;-69
2021/11/01 02:48:08;;;;;;;7.23;2.97;;;;;;;9.83;100.00;94941.41;5058895;28;20229;-69
2021/11/01 02:50:34;;;;;;;4.07;2.20;;;;;;;10.17;100.00;94942.00;5058919;28;20394;-69
2021/11/01 02:53:01;;;;;;;4.87;3.17;;;;;;;9.86;100.00;94944.44;5059130;28;20207;-69
2021/11/01 02:55:28;;;;;;;3.83;2.30;;;;;;;10.06;100.00;94941.81;5057739;28;20212;-69
2021/11/01 02:57:55;;;;;;;2.67;2.07;;;;;;;10.09;100.00;94934.31;5057923;28;20221;-69
2021/11/01 03:00:26;;;;;;;2.73;2.20;;;;;;;10.38;100.00;94932.00;5057769;28;20235;-69
2021/11/01 03:02:54;;;;;;;6.43;2.57;;;;;;;10.41;100.00;94936.03;5058799;28;20209;-69
2021/11/01 03:05:23;;;;;;;5.50;1.97;;;;;;;10.44;100.00;94936.44;5058327;28;20211;-69
2021/11/01 03:07:52;;;;;;;6.53;2.90;;;;;;;10.52;100.00;94940.69;5058068;28;20307;-69
2021/11/01 03:10:21;;;;;;;3.43;1.83;;;;;;;10.02;100.00;94933.50;5058286;28;20215;-69
2021/11/01 03:12:49;;;;;;;4.97;2.13;;;;;;;9.94;100.00;94940.78;5058085;28;20228;-69
2021/11/01 03:15:21;;;;;;;4.97;2.87;;;;;;;9.97;100.00;94945.69;5057259;28;20204;-69
2021/11/01 03:17:51;;;;;;;3.77;2.20;;;;;;;10.11;100.00;94934.13;5056690;28;20224;-69
2021/11/01 03:20:21;;;;;;;5.20;3.17;;;;;;;10.06;100.00;94933.94;5057632;28;20235;-69
2021/11/01 03:22:53;;;;;;;6.30;2.50;;;;;;;10.24;100.00;94936.72;5057898;28;20273;-69
2021/11/01 03:25:30;;;;;;;3.77;2.17;;;;;;;10.17;100.00;94939.38;5055310;28;20583;-69
2021/11/01 03:28:01;;;;;;;16.13;3.40;;;;;;;10.36;100.00;94930.59;5057179;28;20323;-69
2021/11/01 03:30:28;;;;;;;6.23;2.93;;;;;;;10.19;100.00;94939.16;5057956;28;20201;-69
2021/11/01 03:32:57;;;;;;;9.93;2.40;;;;;;;10.39;100.00;94941.53;5058190;28;20201;-69
2021/11/01 03:35:25;;;;;;;4.23;2.10;;;;;;;10.38;100.00;94936.47;5057685;28;20275;-69
2021/11/01 03:37:55;;;;;;;10.43;3.60;;;;;;;10.53;100.00;94929.94;5057868;28;20231;-69
2021/11/01 03:40:22;;;;;;;4.37;2.93;;;;;;;10.34;100.00;94933.44;5057218;28;20285;-69
2021/11/01 03:42:52;;;;;;;3.77;3.00;;;;;;;10.53;100.00;94934.41;5054592;28;20227;-69
2021/11/01 03:45:19;;;;;;;4.33;3.07;;;;;;;10.25;100.00;94936.50;5058445;28;20768;-69
2021/11/01 03:47:48;;;;;;;6.87;2.57;;;;;;;10.23;100.00;94933.25;5056886;28;20305;-69
2021/11/01 03:50:27;;;;;;;4.83;1.90;;;;;;;10.38;100.00;94941.75;5057405;28;20286;-69
2021/11/01 03:52:55;;;;;;;4.23;2.07;;;;;;;10.43;100.00;94941.94;5058011;28;20211;-69
2021/11/01 03:55:23;;;;;;;6.43;3.73;;;;;;;10.48;100.00;94944.75;5058239;28;20239;-69
2021/11/01 03:57:51;;;;;;;3.70;2.53;;;;;;;10.53;100.00;94947.56;5057059;28;20280;-69
2021/11/01 04:00:17;;;;;;;10.93;4.90;;;;;;;10.54;100.00;94951.84;5057234;28;20232;-69
2021/11/01 04:02:46;;;;;;;5.20;2.77;;;;;;;10.52;100.00;94951.22;5057976;28;20196;-69
2021/11/01 04:05:12;;;;;;;5.90;3.33;;;;;;;10.46;100.00;94952.88;5057595;28;20196;-69
2021/11/01 04:07:40;;;;;;;3.87;2.27;;;;;;;10.64;100.00;94957.44;5056356;28;20247;-69
2021/11/01 04:10:09;;;;;;;1.97;1.67;;;;;;;10.59;100.00;94959.91;5057890;28;20203;-69
2021/11/01 04:12:36;;;;;;;7.13;2.57;;;;;;;10.53;100.00;94966.00;5060518;28;20683;-69
2021/11/01 04:15:06;;;;;;;6.27;2.93;;;;;;;10.58;100.00;94966.19;5060921;28;20204;-69
2021/11/01 04:17:42;;;;;;;7.40;3.33;;;;;;;10.58;100.00;94972.28;5060606;28;20231;-69
2021/11/01 04:20:24;;;;;;;3.43;2.03;;;;;;;10.75;100.00;94975.25;5061459;28;20230;-69
2021/11/01 04:22:58;;;;;;;3.63;2.37;;;;;;;10.96;100.00;94968.69;5060965;28;20238;-69
2021/11/01 04:25:26;;;;;;;5.10;3.03;;;;;;;10.86;100.00;94962.25;5057611;28;20205;-69
2021/11/01 04:27:53;;;;;;;5.27;2.93;;;;;;;10.75;100.00;94980.53;5061140;28;20224;-69
2021/11/01 04:30:20;;;;;;;4.20;2.17;;;;;;;10.73;100.00;94983.38;5061378;28;20212;-69
2021/11/01 04:32:51;;;;;;;5.10;3.10;;;;;;;10.65;100.00;94986.22;5061116;28;21257;-69
2021/11/01 04:35:21;;;;;;;5.17;2.83;;;;;;;10.57;100.00;95004.09;5061330;28;20212;-69
2021/11/01 04:37:51;;;;;;;4.77;3.33;;;;;;;10.72;100.00;95002.03;5060806;28;21213;-69
2021/11/01 04:40:28;;;;;;;3.27;2.20;;;;;;;11.06;100.00;95024.41;5060662;28;20720;-69
2021/11/01 04:53:56;;;;;;;6.03;2.67;;;;;;;11.09;100.00;95062.72;5060950;28;20231;-69
2021/11/01 04:56:26;;;;;;;5.00;3.00;;;;;;;11.35;100.00;95068.66;5059571;28;20579;-69
2021/11/01 04:58:53;;;;;;;6.07;3.10;;;;;;;11.11;100.00;95072.03;5060721;28;20261;-69
2021/11/01 05:01:22;;;;;;;6.23;2.67;;;;;;;11.29;100.00;95069.53;5061554;28;20211;-69
2021/11/01 05:03:52;;;;;;;7.37;3.67;;;;;;;11.25;100.00;95070.13;5061368;28;20196;-69
2021/11/01 05:06:22;;;;;;;7.60;3.57;;;;;;;11.26;100.00;95077.84;5059550;28;20942;-69
2021/11/01 05:08:52;;;;;;;7.67;2.83;;;;;;;11.39;100.00;95087.53;5061057;28;20585;-69
2021/11/01 05:11:28;;;;;;;5.10;2.53;;;;;;;11.38;100.00;95089.38;5060440;28;20261;-69
2021/11/01 05:13:56;;;;;;;4.13;2.87;;;;;;;11.48;100.00;95087.09;5060706;28;20211;-69
2021/11/01 05:16:32;;;;;;;5.80;3.63;;;;;;;11.40;100.00;95089.97;5059891;28;20280;-69
2021/11/01 05:19:05;;;;;;;6.93;2.83;;;;;;;11.41;100.00;95083.66;5060006;28;20290;-69
2021/11/01 05:21:35;;;;;;;7.43;3.33;;;;;;;11.42;100.00;95085.28;5059662;28;20209;-69
2021/11/01 05:24:04;;;;;;;4.47;3.77;;;;;;;11.34;100.00;95097.91;5060143;28;20618;-69
2021/11/01 05:29:13;;;;;;;5.20;3.20;;;;;;;11.50;100.00;95100.91;5059533;28;20208;-69
2021/11/01 05:31:47;;;;;;;5.77;3.00;;;;;;;11.42;100.00;95106.41;5060330;28;20204;-69
2021/11/01 05:34:15;;;;;;;6.37;3.10;;;;;;;11.31;100.00;95112.31;5060442;28;20993;-69
2021/11/01 05:36:42;;;;;;;6.70;2.90;;;;;;;11.41;100.00;95106.59;5058529;28;20217;-69
2021/11/01 05:39:09;;;;;;;5.37;3.27;;;;;;;11.35;100.00;95110.06;5059862;28;20224;-69
2021/11/01 05:41:36;;;;;;;6.40;3.33;;;;;;;11.43;100.00;95113.28;5060009;28;20211;-69
2021/11/01 05:44:03;;;;;;;8.10;3.90;;;;;;;11.32;100.00;95121.84;5059714;28;20250;-69
2021/11/01 05:46:36;;;;;;;4.43;2.53;;;;;;;11.61;100.00;95124.81;5058704;28;21035;-69
2021/11/01 05:49:04;;;;;;;5.40;3.13;;;;;;;11.68;100.00;95124.78;5058706;28;20232;-69
2021/11/01 05:51:33;;;;;;;7.23;3.27;;;;;;;11.63;100.00;95124.59;5059610;28;20286;-69
2021/11/01 05:54:03;;;;;;;3.00;1.93;;;;;;;11.66;100.00;95125.00;5059465;28;20205;-69
2021/11/01 05:56:35;;;;;;;7.00;2.87;;;;;;;11.62;100.00;95130.88;5058438;28;20205;-69
2021/11/01 06:04:54;;;;;;;3.87;2.37;;;;;;;11.54;100.00;95132.97;5033034;28;21137;-69
2021/11/01 06:07:28;;;;;;;4.97;2.57;;;;;;;11.64;100.00;95134.13;5058554;28;20228;-69
2021/11/01 06:10:02;;;;;;;6.00;2.93;;;;;;;11.79;100.00;95130.19;5059800;28;20200;-69
2021/11/01 06:15:14;;;;;;;2.43;1.97;;;;;;;11.88;100.00;95143.97;5059090;28;21254;-69
2021/11/01 06:17:42;;;;;;;4.23;2.20;;;;;;;12.19;100.00;95145.63;5059399;28;20220;-69
2021/11/01 06:20:10;;;;;;;7.43;3.50;;;;;;;12.12;100.00;95148.47;5058540;28;20259;-69
2021/11/01 06:22:37;;;;;;;2.57;2.03;;;;;;;12.01;100.00;95157.09;5058458;28;20200;-69
2021/11/01 06:25:06;;;;;;;2.67;1.47;;;;;;;12.02;100.00;95161.34;5058989;28;20295;-69
2021/11/01 06:27:34;;;;;;;3.57;1.80;;;;;;;12.10;100.00;95163.75;5055611;28;20316;-69
2021/11/01 06:30:09;;;;;;;2.63;1.67;;;;;;;12.03;100.00;95165.59;5058439;28;20204;-69
2021/11/01 06:32:42;;;;;;;2.10;1.30;;;;;;;12.15;100.00;95166.56;5058615;28;20300;-69
2021/11/01 06:43:21;;;;;;;3.47;1.10;;;;;;;12.00;100.00;95184.50;5056401;28;20209;-70
2021/11/01 06:46:22;;;;;;;2.03;0.83;;;;;;;12.03;100.00;95194.63;5057144;28;20209;-70
2021/11/01 06:51:43;;;;;;;1.60;0.93;;;;;;;12.19;100.00;95189.69;5055331;28;20226;-70
2021/11/01 06:57:22;;;;;;;1.07;0.67;;;;;;;12.03;100.00;95194.63;5014430;28;20275;-70
2021/11/01 07:16:26;;;;;;;0.80;0.50;;;;;;;12.40;98.55;95215.78;5055699;28;20246;-70
2021/11/01 07:18:58;;;;;;;0.40;0.40;;;;;;;12.57;97.33;95219.53;5057741;28;20200;-70
2021/11/01 07:21:39;;;;;;;1.03;0.40;;;;;;;12.46;97.21;95223.66;5057231;28;20227;-70
2021/11/01 07:24:48;;;;;;;0.40;0.40;;;;;;;12.90;95.91;95216.44;5056463;28;21012;-70
2021/11/01 08:22:19;;;;;;;0.30;0.30;;;;;;;11.98;93.32;95261.28;5056039;28;20211;-71
2021/11/01 08:25:14;;;;;;;0.43;0.43;;;;;;;12.05;94.67;95267.34;5055479;28;20197;-71
2021/11/01 08:36:08;;;;;;;0.40;0.40;;;;;;;11.83;96.86;95288.97;5055068;28;20306;-70
2021/11/01 08:38:56;;;;;;;0.20;0.20;;;;;;;12.01;96.66;95286.47;5055548;28;20232;-69
2021/11/01 08:41:38;;;;;;;0.47;0.47;;;;;;;11.79;96.85;95288.56;5055890;28;20228;-71
2021/11/01 08:44:27;;;;;;;0.40;0.40;;;;;;;11.80;97.12;95295.47;5056178;28;20294;-71
2021/11/01 08:50:05;;;;;;;11.20;0.80;;;;;;;11.91;96.09;95291.38;5056186;28;20243;-70
2021/11/01 09:03:54;;;;;;;1.60;1.20;;;;;;;12.51;96.72;95295.19;5059101;28;20218;-70
2021/11/01 09:06:41;;;;;;;1.30;0.80;;;;;;;12.09;97.05;95294.94;5058498;28;20208;-70
2021/11/01 09:20:10;;;;;;;0.63;0.60;;;;;;;12.61;98.26;95292.06;5058851;28;20226;-71
2021/11/01 09:23:04;;;;;;;0.40;0.40;;;;;;;12.52;98.52;95296.78;5059482;28;20243;-70
2021/11/01 09:28:27;;;;;;;1.13;0.50;;;;;;;12.67;99.77;95296.53;5047573;28;20580;-70
2021/11/01 09:36:42;;;;;;;0.93;0.50;;;;;;;12.47;100.00;95301.09;5058170;28;20212;-71
2021/11/01 09:41:53;;;;;;;1.60;0.57;;;;;;;12.27;100.00;95303.00;5058190;28;20254;-70
2021/11/01 09:44:24;;;;;;;0.73;0.40;;;;;;;12.09;100.00;95302.88;5058642;28;20209;-71
2021/11/01 09:46:54;;;;;;;0.50;0.50;;;;;;;12.12;100.00;95306.91;5057900;28;20246;-71
2021/11/01 09:49:21;;;;;;;0.77;0.77;;;;;;;11.99;100.00;95302.50;5058622;28;20219;-71
2021/11/01 09:51:52;;;;;;;0.50;0.50;;;;;;;12.01;100.00;95308.38;5058817;28;20203;-70
2021/11/01 09:54:21;;;;;;;0.33;0.33;;;;;;;11.99;100.00;95306.97;5058709;28;20712;-70
2021/11/01 09:56:58;;;;;;;1.90;0.93;;;;;;;11.75;100.00;95312.94;5057288;28;20322;-70
2021/11/01 09:59:26;;;;;;;0.30;0.30;;;;;;;11.61;100.00;95306.06;5058508;28;21053;-71
2021/11/01 10:01:53;;;;;;;1.60;0.70;;;;;;;11.54;100.00;95313.16;5058983;28;20228;-70
2021/11/01 10:04:21;;;;;;;0.73;0.43;;;;;;;11.84;100.00;95307.22;5058311;28;20201;-70
2021/11/01 10:07:03;;;;;;;1.13;0.73;;;;;;;11.88;100.00;95303.16;5058633;28;20224;-71
2021/11/01 10:09:30;;;;;;;0.30;0.30;;;;;;;11.87;99.79;95298.06;5057805;28;21235;-71
2021/11/01 10:11:57;;;;;;;0.90;0.90;;;;;;;12.15;99.68;95303.88;5058469;28;20196;-70
2021/11/01 10:14:26;;;;;;;0.30;0.30;;;;;;;11.77;100.00;95295.06;5057742;28;20203;-70
2021/11/01 10:19:41;;;;;;;0.20;0.20;;;;;;;11.65;100.00;95296.72;5058078;28;20243;-70
2021/11/01 10:22:14;;;;;;;3.90;0.40;;;;;;;11.72;99.83;95302.78;5058089;28;20315;-70
2021/11/01 10:24:43;;;;;;;1.10;0.50;;;;;;;11.61;100.00;95293.66;5057732;28;20672;-71
2021/11/01 10:27:13;;;;;;;0.40;0.40;;;;;;;11.75;99.06;95287.34;5053759;28;20224;-70
2021/11/01 10:29:52;;;;;;;0.50;0.50;;;;;;;11.78;97.60;95275.56;5057691;28;21227;-70
2021/11/01 10:32:28;;;;;;;0.30;0.30;;;;;;;11.97;97.93;95262.31;5057549;28;20252;-70
2021/11/01 10:35:06;;;;;;;0.30;0.30;;;;;;;12.26;97.41;95265.22;5057630;28;20204;-70
2021/11/01 10:37:36;;;;;;;1.40;0.60;;;;;;;12.07;100.00;95267.16;5056512;28;20228;-70
2021/11/01 10:40:08;;;;;;;2.20;0.93;;;;;;;12.01;99.10;95263.50;5057611;28;20200;-71
2021/11/01 10:42:42;;;;;;;0.70;0.70;;;;;;;12.77;97.20;95263.31;5052372;28;20215;-70
2021/11/01 10:45:13;;;;;;;3.70;1.63;;;;;;;12.37;99.03;95256.66;5056667;28;20294;-70
2021/11/01 10:56:56;;;;;;;4.53;1.57;;;;;;;12.47;98.28;95235.03;5055812;28;20216;-70
2021/11/01 11:13:07;;;;;;;2.13;0.70;;;;;;;11.84;99.21;95259.72;5055760;28;20207;-70
2021/11/01 11:15:36;;;;;;;0.83;0.40;;;;;;;12.04;100.00;95262.28;5055512;28;20330;-70
2021/11/01 11:18:13;;;;;;;1.17;0.73;;;;;;;11.79;99.99;95271.91;5055455;28;20216;-71
2021/11/01 11:26:54;;;;;;;0.87;0.40;;;;;;;12.24;99.33;95267.28;5049797;28;20767;-72
2021/11/01 11:29:37;;;;;;;0.83;0.77;;;;;;;12.11;100.00;95265.72;5054298;28;20199;-71
2021/11/01 11:32:24;;;;;;;0.40;0.40;;;;;;;12.22;99.76;95264.03;5054577;28;20196;-72
2021/11/01 11:48:49;;;;;;;0.37;0.37;;;;;;;12.08;99.08;95247.63;5053442;28;20235;-72
2021/11/01 11:51:16;;;;;;;1.00;0.50;;;;;;;12.24;99.01;95240.88;5053488;28;20200;-71
2021/11/01 11:53:57;;;;;;;0.60;0.57;;;;;;;12.49;98.23;95246.22;5053562;28;20196;-72
2021/11/01 11:56:36;;;;;;;0.40;0.40;;;;;;;12.59;98.38;95244.72;5052199;28;20631;-71
2021/11/01 11:59:05;;;;;;;0.93;0.60;;;;;;;12.47;99.32;95251.69;5052870;28;20200;-71
2021/11/01 12:01:34;;;;;;;1.07;0.57;;;;;;;12.32;100.00;95253.00;5051894;28;20231;-72
2021/11/01 12:04:01;;;;;;;0.80;0.60;;;;;;;12.32;99.84;95240.63;5053343;28;20215;-72
2021/11/01 12:06:46;;;;;;;0.77;0.77;;;;;;;12.84;99.17;95233.16;5052212;28;20529;-72
2021/11/01 12:09:19;;;;;;;1.10;0.80;;;;;;;12.35;99.86;95234.91;5050078;28;20200;-72
2021/11/01 12:12:34;;;;;;;0.40;0.40;;;;;;;12.46;99.57;95234.25;5053159;28;20284;-71
2021/11/01 12:17:49;;;;;;;1.67;1.13;;;;;;;12.46;100.00;95228.13;5051958;28;20590;-71
2021/11/01 12:20:15;;;;;;;1.00;0.60;;;;;;;12.25;100.00;95220.53;5052729;28;20355;-72
2021/11/01 12:22:47;;;;;;;3.63;1.47;;;;;;;12.35;100.00;95221.69;5052430;28;20228;-72
2021/11/01 12:25:18;;;;;;;7.10;1.00;;;;;;;12.46;99.50;95220.19;5050681;28;20543;-73
2021/11/01 12:27:59;;;;;;;0.73;0.50;;;;;;;12.44;100.00;95232.81;5047704;28;20229;-72
2021/11/01 12:30:36;;;;;;;0.80;0.70;;;;;;;12.68;100.00;95237.34;5050728;28;20220;-72
2021/11/01 12:33:03;;;;;;;2.13;0.83;;;;;;;12.50;99.81;95237.25;5048328;28;20201;-72
2021/11/01 12:35:32;;;;;;;0.83;0.43;;;;;;;12.27;100.00;95237.78;5037699;28;20704;-72
2021/11/01 12:38:04;;;;;;;3.40;1.27;;;;;;;12.43;100.00;95239.94;5037677;28;20850;-72
2021/11/01 12:40:40;;;;;;;0.60;0.60;;;;;;;12.82;99.19;95237.84;5038473;28;20298;-72
2021/11/01 12:49:06;;;;;;;2.10;1.33;;;;;;;12.46;99.15;95226.31;5038065;28;20294;-71
2021/11/01 12:57:14;;;;;;;0.60;0.57;;;;;;;12.15;100.00;95206.19;5005706;28;20227;-72
2021/11/01 12:59:46;;;;;;;1.07;0.77;;;;;;;12.59;100.00;95202.44;5038228;28;20205;-72
2021/11/01 13:02:15;;;;;;;1.80;0.80;;;;;;;12.48;100.00;95205.75;5037814;28;20315;-72
2021/11/01 13:04:43;;;;;;;0.97;0.90;;;;;;;12.47;100.00;95198.03;5037613;28;20220;-72
2021/11/01 13:07:28;;;;;;;2.33;0.80;;;;;;;12.50;100.00;95209.00;5037036;28;20228;-72
2021/11/01 13:10:00;;;;;;;3.33;0.70;;;;;;;12.53;100.00;95203.28;5037487;28;20290;-72
2021/11/01 13:12:44;;;;;;;3.23;0.90;;;;;;;12.65;100.00;95206.84;5037401;28;20209;-72
2021/11/01 13:18:10;;;;;;;1.03;0.77;;;;;;;12.39;100.00;95207.03;5038462;28;20228;-72
2021/11/01 13:20:38;;;;;;;0.73;0.73;;;;;;;12.37;100.00;95209.09;5038590;28;20209;-72
2021/11/01 13:23:06;;;;;;;2.40;0.80;;;;;;;12.25;100.00;95208.13;5038414;28;20228;-72
2021/11/01 13:25:42;;;;;;;0.90;0.77;;;;;;;12.20;100.00;95213.22;5034731;28;20209;-71
2021/11/01 13:28:40;;;;;;;0.77;0.77;;;;;;;12.26;100.00;95209.75;5037833;28;20216;-72
2021/11/01 13:36:53;;;;;;;0.50;0.50;;;;;;;12.34;100.00;95206.84;5035476;28;20672;-71
2021/11/01 13:39:27;;;;;;;0.80;0.80;;;;;;;12.35;100.00;95205.84;5037438;28;20205;-71
2021/11/01 13:41:54;;;;;;;0.50;0.50;;;;;;;12.09;99.36;95205.16;5037551;28;20201;-71
2021/11/01 13:44:23;;;;;;;1.10;0.93;;;;;;;11.93;100.00;95210.94;5036856;28;20669;-71
2021/11/01 13:46:56;;;;;;;1.17;0.87;;;;;;;12.09;97.96;95196.44;5035701;28;21419;-72
2021/11/01 13:49:22;;;;;;;1.57;0.90;;;;;;;11.75;98.13;95196.81;5037408;28;20288;-71
2021/11/01 13:51:50;;;;;;;1.40;1.07;;;;;;;11.53;98.99;95190.16;5037032;28;20205;-71
2021/11/01 13:54:29;;;;;;;0.80;0.47;;;;;;;11.70;99.06;95189.50;5037921;28;20540;-71
2021/11/01 13:57:00;;;;;;;2.80;1.27;;;;;;;11.95;98.08;95189.59;5036311;28;20765;-71
2021/11/01 13:59:37;;;;;;;1.40;1.10;;;;;;;11.76;98.92;95185.22;5036734;28;20526;-71
2021/11/01 14:02:18;;;;;;;0.70;0.70;;;;;;;11.59;99.10;95176.16;5037048;28;20201;-71
2021/11/01 14:13:06;;;;;;;0.83;0.53;;;;;;;11.22;100.00;95158.38;5037473;28;20292;-71
2021/11/01 14:16:12;;;;;;;2.27;1.27;;;;;;;11.26;100.00;95153.50;5036228;28;20299;-71
2021/11/01 14:18:49;;;;;;;0.83;0.77;;;;;;;11.37;100.00;95144.97;5036356;28;20224;-72
2021/11/01 14:29:45;;;;;;;0.57;0.57;;;;;;;10.87;100.00;95158.03;5036570;28;20236;-71
2021/11/01 14:35:19;;;;;;;0.70;0.70;;;;;;;11.10;100.00;95148.69;5036885;28;20212;-71
2021/11/01 15:00:22;;;;;;;1.37;0.73;;;;;;;10.70;100.00;95122.59;5035687;28;20723;-71
2021/11/01 15:14:02;;;;;;;0.93;0.93;;;;;;;10.72;100.00;95124.00;5036136;28;20212;-73
2021/11/01 15:16:41;;;;;;;1.40;0.83;;;;;;;10.76;100.00;95113.88;5036025;28;20231;-71
2021/11/01 15:22:05;;;;;;;0.40;0.40;;;;;;;10.80;100.00;95115.09;5034801;28;20563;-71
2021/11/01 15:25:08;;;;;;;1.33;0.97;;;;;;;10.96;100.00;95113.63;5036424;28;20211;-71
2021/11/01 15:27:45;;;;;;;2.07;0.93;;;;;;;10.52;100.00;95111.88;5033255;28;20308;-71
2021/11/01 15:36:11;;;;;;;1.53;0.80;;;;;;;11.10;100.00;95120.50;4989970;28;20595;-71
2021/11/01 15:38:47;;;;;;;0.97;0.90;;;;;;;10.77;100.00;95126.03;4996814;28;20226;-71
2021/11/01 16:19:44;;;;;;;0.63;0.63;;;;;;;11.20;99.25;95149.88;5053528;28;20582;-72
2021/11/01 16:22:12;;;;;;;0.67;0.57;;;;;;;11.09;99.59;95147.06;5053385;28;20208;-71
2021/11/01 16:24:39;;;;;;;1.40;0.77;;;;;;;10.68;99.72;95161.50;5054153;28;20281;-71
2021/11/01 16:27:08;;;;;;;3.10;2.00;;;;;;;10.93;99.70;95151.97;5049473;28;20224;-71
2021/11/01 16:29:43;;;;;;;2.20;1.43;;;;;;;10.84;98.85;95163.72;5052943;28;20209;-71
2021/11/01 16:32:16;;;;;;;1.63;1.23;;;;;;;11.08;98.78;95162.06;5054719;28;20203;-72
2021/11/01 16:34:47;;;;;;;0.50;0.50;;;;;;;11.10;98.69;95162.69;5053090;28;20661;-71
2021/11/01 16:37:23;;;;;;;0.43;0.40;;;;;;;11.04;98.09;95163.50;5052211;28;20946;-70
2021/11/01 16:39:51;;;;;;;1.47;0.63;;;;;;;10.94;97.85;95164.94;5053338;28;20736;-70
2021/11/01 16:42:19;;;;;;;0.77;0.70;;;;;;;10.95;98.06;95156.81;5053854;28;20223;-70
2021/11/01 16:44:46;;;;;;;3.37;1.07;;;;;;;10.84;97.61;95167.16;5053537;28;20577;-70
2021/11/01 16:47:13;;;;;;;1.53;0.93;;;;;;;10.77;97.75;95173.44;5052649;28;20216;-70
2021/11/01 16:49:40;;;;;;;0.50;0.50;;;;;;;10.79;98.18;95161.69;5052974;28;20200;-70
2021/11/01 16:52:15;;;;;;;0.70;0.67;;;;;;;11.22;97.83;95155.75;5053489;28;20201;-70
2021/11/01 16:54:44;;;;;;;1.60;1.03;;;;;;;11.01;97.80;95161.28;5053308;28;20200;-70
2021/11/01 16:57:16;;;;;;;2.37;1.70;;;;;;;11.14;97.68;95155.97;5051917;28;20216;-70
2021/11/01 16:59:50;;;;;;;1.57;1.20;;;;;;;11.04;97.65;95154.78;5052925;28;20319;-70
2021/11/01 17:02:34;;;;;;;0.67;0.67;;;;;;;10.93;97.37;95148.31;5053193;28;20204;-70
2021/11/01 17:05:05;;;;;;;1.03;0.77;;;;;;;10.61;96.86;95147.53;5052781;28;20205;-70
2021/11/01 17:07:46;;;;;;;4.23;0.90;;;;;;;10.80;97.15;95139.59;5052120;28;20598;-70
2021/11/01 17:10:42;;;;;;;0.53;0.53;;;;;;;10.81;96.36;95132.53;5052669;28;20287;-70
2021/11/01 17:21:41;;;;;;;0.73;0.73;;;;;;;10.48;96.56;95137.00;5052338;28;20243;-70
2021/11/01 17:24:15;;;;;;;5.23;1.83;;;;;;;10.83;96.73;95133.13;5052395;28;20192;-70